Time;durP1;ratioP1;P1;durP2;ratioP2;P2;SDS_P1;SDS_P2;PMS_P1;PMS_P2;Temp;Humidity;BMP_temperature;BMP_pressure;BME280_temperature;BME280_humidity;BME280_pressure;Samples;Min_cycle;Max_cycle;Signal;HPM_P1;HPM_P2
2023/09/20 10:26:15;;;;;;;7.10;2.70;;;;;;;26.34;30.66;99773.65;80627;1297;3012800;-75
2023/09/20 10:28:45;;;;;;;6.40;2.80;;;;;;;26.39;30.45;99776.62;79665;1298;3011533;-78
2023/09/20 10:31:16;;;;;;;5.40;3.00;;;;;;;26.50;30.11;99770.08;78575;1300;3049926;-77
2023/09/20 10:33:55;;;;;;;5.20;2.60;;;;;;;26.55;30.16;99762.42;79948;1298;3011986;-77
2023/09/20 10:36:24;;;;;;;4.00;2.60;;;;;;;26.74;30.35;99765.71;78699;1301;3052279;-77
2023/09/20 10:39:11;;;;;;;4.80;2.70;;;;;;;26.64;29.71;99760.48;77526;1300;3203664;-76
2023/09/20 10:41:40;;;;;;;5.60;2.40;;;;;;;26.63;30.02;99758.20;78811;1292;3056774;-78
2023/09/20 10:44:09;;;;;;;8.70;3.30;;;;;;;26.78;30.23;99759.82;79929;1292;3011748;-78
2023/09/20 10:46:37;;;;;;;4.30;2.30;;;;;;;26.89;29.74;99756.73;79070;1294;3049742;-77
2023/09/20 10:49:05;;;;;;;5.90;2.90;;;;;;;26.90;29.14;99751.65;79737;1297;3013184;-78
2023/09/20 10:51:41;;;;;;;5.30;2.60;;;;;;;27.04;29.17;99753.52;79884;1296;3013209;-78
2023/09/20 10:54:18;;;;;;;5.60;2.80;;;;;;;27.07;28.60;99756.33;78707;1292;3050912;-77
2023/09/20 10:56:53;;;;;;;4.60;3.10;;;;;;;27.11;28.12;99751.44;78640;1294;3056304;-77
2023/09/20 10:59:27;;;;;;;7.30;2.60;;;;;;;27.02;28.30;99752.38;79946;1295;3011970;-77
2023/09/20 11:02:04;;;;;;;6.00;2.50;;;;;;;27.01;28.10;99752.88;78604;1297;3054813;-77
2023/09/20 11:04:32;;;;;;;8.50;2.50;;;;;;;27.20;28.57;99752.83;78694;1296;3049383;-77
2023/09/20 11:06:59;;;;;;;8.10;2.60;;;;;;;27.23;28.59;99753.14;79748;1297;3013227;-77
2023/09/20 11:09:33;;;;;;;4.40;2.70;;;;;;;27.08;28.12;99752.48;79773;1292;3011201;-77
2023/09/20 11:12:09;;;;;;;3.70;2.80;;;;;;;27.08;28.46;99747.79;78620;1297;3050944;-77
2023/09/20 11:14:42;;;;;;;6.20;2.60;;;;;;;27.17;28.25;99747.05;79274;1298;3013257;-74
2023/09/20 11:17:15;;;;;;;5.80;2.60;;;;;;;27.09;28.57;99743.20;79716;1297;3011751;-73
2023/09/20 11:19:43;;;;;;;5.20;2.40;;;;;;;27.33;28.40;99738.52;78393;1297;3048377;-76
2023/09/20 11:22:14;;;;;;;4.50;2.70;;;;;;;27.46;28.52;99735.30;79749;1298;3011905;-76
2023/09/20 11:24:43;;;;;;;6.70;2.70;;;;;;;27.58;28.43;99732.71;78506;1296;3027085;-78
2023/09/20 11:27:11;;;;;;;10.80;2.90;;;;;;;27.70;28.63;99733.33;79834;1296;3013484;-77
2023/09/20 11:29:41;;;;;;;7.40;2.40;;;;;;;27.75;28.93;99733.27;79415;1298;3013105;-76
2023/09/20 11:32:09;;;;;;;11.50;2.60;;;;;;;27.79;28.76;99727.86;80291;1292;3012920;-76
2023/09/20 11:34:46;;;;;;;6.20;2.70;;;;;;;27.77;28.65;99721.96;79788;1292;3011592;-76
2023/09/20 11:37:15;;;;;;;5.60;3.10;;;;;;;27.69;28.68;99731.16;78630;1295;3049069;-76
2023/09/20 11:39:44;;;;;;;10.30;3.10;;;;;;;27.57;28.56;99723.16;80034;1295;3013430;-75
2023/09/20 11:42:31;;;;;;;10.70;2.90;;;;;;;27.45;28.84;99725.08;78705;1297;3026841;-77
2023/09/20 11:45:05;;;;;;;5.80;2.80;;;;;;;27.40;29.07;99718.81;78504;1297;3053182;-76
2023/09/20 11:47:34;;;;;;;5.70;2.70;;;;;;;27.44;28.76;99714.90;79644;1297;3011638;-76
2023/09/20 11:50:04;;;;;;;6.70;3.00;;;;;;;27.53;29.07;99719.81;78486;1293;3067821;-75
2023/09/20 11:52:31;;;;;;;8.10;3.20;;;;;;;27.40;29.09;99716.98;79731;1293;3011795;-76
2023/09/20 11:55:03;;;;;;;4.50;2.80;;;;;;;27.54;29.23;99717.92;79410;1294;3011776;-75
2023/09/20 11:57:35;;;;;;;9.50;2.90;;;;;;;27.69;28.83;99714.02;79765;1295;3013558;-75
2023/09/20 12:00:06;;;;;;;7.90;2.70;;;;;;;27.81;28.61;99704.57;78501;1297;3053409;-75
2023/09/20 12:02:40;;;;;;;7.00;2.60;;;;;;;27.99;28.90;99704.58;78715;1293;3048165;-75
2023/09/20 12:05:08;;;;;;;6.30;2.30;;;;;;;28.03;28.03;99701.54;79835;1297;3013103;-74
2023/09/20 12:07:34;;;;;;;6.20;3.10;;;;;;;28.12;27.53;99700.59;79752;1297;3011777;-74
2023/09/20 12:10:06;;;;;;;8.50;2.50;;;;;;;28.24;27.86;99700.09;78298;1295;3052703;-73
2023/09/20 12:12:35;;;;;;;5.50;2.50;;;;;;;28.36;27.92;99696.70;79887;1293;3013035;-74
2023/09/20 12:15:06;;;;;;;7.90;2.70;;;;;;;28.43;27.53;99699.67;78549;1297;3047782;-73
2023/09/20 12:17:33;;;;;;;5.30;2.60;;;;;;;28.41;27.18;99705.24;79746;1297;3011560;-75
2023/09/20 12:20:01;;;;;;;7.60;2.70;;;;;;;28.42;26.93;99703.11;78468;1297;3028848;-74
2023/09/20 12:22:28;;;;;;;6.90;2.60;;;;;;;28.51;26.50;99697.95;79813;1297;3018801;-76
2023/09/20 12:24:56;;;;;;;8.30;2.90;;;;;;;28.65;26.87;99697.33;79707;1298;3013352;-76
2023/09/20 12:27:25;;;;;;;3.60;2.50;;;;;;;28.64;27.01;99698.11;78427;1295;3050409;-74
2023/09/20 12:29:52;;;;;;;5.60;2.60;;;;;;;28.52;26.63;99692.13;79678;1297;3016027;-76
2023/09/20 12:32:18;;;;;;;4.70;2.50;;;;;;;28.46;26.50;99689.75;79673;1293;3011847;-76
2023/09/20 12:34:46;;;;;;;4.80;2.50;;;;;;;28.43;26.89;99689.41;78603;1295;3048545;-75
2023/09/20 12:37:13;;;;;;;6.90;2.50;;;;;;;28.65;26.75;99688.05;79863;1298;3018761;-76
2023/09/20 12:39:40;;;;;;;5.00;2.10;;;;;;;28.63;26.27;99688.88;79692;1297;3013092;-76
2023/09/20 12:42:09;;;;;;;7.00;2.60;;;;;;;28.38;26.77;99687.23;78538;1305;3051120;-74
2023/09/20 12:44:35;;;;;;;8.90;2.70;;;;;;;28.66;26.41;99681.08;79820;1293;3013622;-75
2023/09/20 12:47:02;;;;;;;6.20;2.40;;;;;;;28.80;26.20;99682.79;79704;1296;3011534;-75
2023/09/20 12:49:30;;;;;;;8.30;2.70;;;;;;;28.96;26.10;99678.84;78529;1298;3049665;-75
2023/09/20 12:51:57;;;;;;;5.60;2.30;;;;;;;29.03;26.05;99685.61;79704;1297;3013270;-76
2023/09/20 12:54:25;;;;;;;5.10;2.20;;;;;;;29.12;25.92;99685.27;79784;1297;3012132;-76
2023/09/20 12:56:53;;;;;;;8.90;2.60;;;;;;;29.19;25.83;99685.61;78573;1292;3050329;-75
2023/09/20 12:59:20;;;;;;;5.30;2.30;;;;;;;29.17;26.03;99680.29;79795;1297;3012779;-75
2023/09/20 13:01:47;;;;;;;5.10;2.70;;;;;;;29.12;25.96;99679.98;79748;1297;3011657;-74
2023/09/20 13:04:15;;;;;;;7.90;3.10;;;;;;;29.17;26.11;99680.11;78835;1298;3029440;-76
2023/09/20 13:06:43;;;;;;;4.30;2.50;;;;;;;29.24;25.49;99674.67;79881;1298;3014166;-76
2023/09/20 13:09:14;;;;;;;4.50;2.40;;;;;;;29.21;24.99;99678.01;79675;1298;3011784;-74
2023/09/20 13:11:46;;;;;;;2.70;2.40;;;;;;;29.11;25.38;99677.00;78433;1295;3051406;-76
2023/09/20 13:14:14;;;;;;;2.90;2.30;;;;;;;29.05;25.48;99681.95;79800;1297;3011892;-76
2023/09/20 13:16:42;;;;;;;4.50;2.40;;;;;;;29.04;25.99;99682.66;78730;1295;3048450;-76
2023/09/20 13:19:09;;;;;;;5.70;2.40;;;;;;;28.83;26.09;99679.46;79801;1305;3018384;-76
2023/09/20 13:21:35;;;;;;;7.00;2.20;;;;;;;28.62;26.26;99677.27;79767;1298;3013469;-76
2023/09/20 13:24:08;;;;;;;5.80;2.40;;;;;;;28.51;26.58;99676.04;78604;1295;3026275;-75
2023/09/20 13:26:36;;;;;;;7.80;2.30;;;;;;;28.43;26.68;99677.06;79787;1298;3011632;-77
2023/09/20 13:29:05;;;;;;;4.10;2.40;;;;;;;28.33;27.02;99679.57;78585;1292;3050954;-75
2023/09/20 13:31:32;;;;;;;6.40;2.40;;;;;;;28.35;27.30;99672.52;79814;1298;3013451;-76
2023/09/20 13:34:02;;;;;;;3.40;2.30;;;;;;;28.44;27.01;99672.91;79761;1293;3011541;-78
2023/09/20 13:36:32;;;;;;;2.90;2.50;;;;;;;28.46;27.27;99671.37;78438;1298;3050271;-77
2023/09/20 13:38:59;;;;;;;6.30;2.70;;;;;;;28.50;27.00;99670.16;79813;1295;3011609;-76
2023/09/20 13:41:28;;;;;;;6.60;2.70;;;;;;;28.58;27.10;99667.40;79234;1296;3012958;-77
2023/09/20 13:43:54;;;;;;;15.10;2.60;;;;;;;28.68;26.95;99666.36;79755;1298;3013572;-77
2023/09/20 13:46:21;;;;;;;7.10;2.10;;;;;;;28.71;26.84;99662.91;79756;1293;3011593;-76
2023/09/20 13:48:50;;;;;;;7.20;2.00;;;;;;;28.87;26.51;99662.03;78583;1293;3027077;-75
2023/09/20 13:51:17;;;;;;;8.00;2.90;;;;;;;28.93;26.32;99665.11;79783;1295;3012822;-76
2023/09/20 13:53:45;;;;;;;4.60;2.60;;;;;;;29.02;26.25;99664.73;79807;1297;3011704;-77
2023/09/20 13:56:13;;;;;;;4.40;2.30;;;;;;;28.99;26.59;99661.77;78595;1297;3051244;-78
2023/09/20 13:58:41;;;;;;;10.30;2.70;;;;;;;28.91;27.03;99662.78;80008;1295;3015313;-77
2023/09/20 14:01:09;;;;;;;4.30;2.80;;;;;;;28.88;27.01;99662.04;79838;1293;3013741;-76
2023/09/20 14:03:39;;;;;;;4.90;2.80;;;;;;;28.87;26.63;99659.50;78462;1293;3048667;-76
2023/09/20 14:06:07;;;;;;;8.00;2.30;;;;;;;28.86;26.61;99660.49;79764;1292;3011678;-75
2023/09/20 14:08:35;;;;;;;10.90;2.40;;;;;;;29.01;26.55;99658.73;78790;1292;3049602;-77
2023/09/20 14:11:04;;;;;;;5.50;2.50;;;;;;;29.01;26.71;99656.91;79915;1295;3012790;-76
2023/09/20 14:13:31;;;;;;;9.60;2.40;;;;;;;28.99;26.34;99656.46;79946;1297;3011625;-77
2023/09/20 14:15:59;;;;;;;6.50;2.30;;;;;;;28.93;26.04;99652.30;78792;1308;3051249;-76
2023/09/20 14:18:25;;;;;;;3.90;2.20;;;;;;;28.94;25.74;99654.02;80022;1293;3019008;-77
2023/09/20 14:20:53;;;;;;;5.50;2.70;;;;;;;28.96;26.16;99656.42;79959;1296;3011673;-76
2023/09/20 14:23:21;;;;;;;9.40;2.50;;;;;;;29.06;26.15;99657.45;78887;1297;3024969;-76
2023/09/20 14:25:49;;;;;;;7.80;2.20;;;;;;;29.03;25.68;99656.95;79933;1297;3012887;-75
2023/09/20 14:28:16;;;;;;;14.90;3.00;;;;;;;29.00;26.12;99658.29;79877;1301;3012989;-76
2023/09/20 14:30:44;;;;;;;5.90;2.70;;;;;;;28.98;25.79;99652.75;78656;1297;3049170;-77
2023/09/20 14:33:12;;;;;;;4.10;2.50;;;;;;;28.93;26.32;99655.75;79889;1294;3011936;-77
2023/09/20 14:35:40;;;;;;;8.70;3.00;;;;;;;28.86;26.22;99654.34;79859;1295;3011575;-77
2023/09/20 14:38:07;;;;;;;7.20;3.00;;;;;;;28.81;26.39;99654.76;78679;1298;3049699;-77
2023/09/20 14:40:34;;;;;;;9.70;3.10;;;;;;;28.75;26.73;99655.26;79950;1297;3013757;-77
2023/09/20 14:43:02;;;;;;;5.80;3.10;;;;;;;28.73;26.76;99653.05;79798;1300;3013415;-76
2023/09/20 14:45:30;;;;;;;6.20;2.50;;;;;;;28.63;26.68;99649.28;78409;1293;3050630;-77
2023/09/20 14:48:01;;;;;;;12.30;3.00;;;;;;;28.66;26.53;99651.30;80027;1296;3013365;-77
2023/09/20 14:50:29;;;;;;;8.40;3.00;;;;;;;28.64;26.64;99651.58;78675;1297;3054073;-76
2023/09/20 14:52:56;;;;;;;5.90;3.40;;;;;;;28.64;26.79;99650.95;79819;1297;3013709;-77
2023/09/20 14:55:25;;;;;;;7.90;2.90;;;;;;;28.62;27.05;99650.60;79850;1293;3011795;-75
2023/09/20 14:57:55;;;;;;;7.10;3.00;;;;;;;28.46;27.03;99649.02;78573;1297;3068522;-75
2023/09/20 15:00:22;;;;;;;17.20;4.00;;;;;;;28.24;27.38;99646.81;79945;1293;3012931;-74
2023/09/20 15:02:49;;;;;;;7.00;4.50;;;;;;;28.01;27.93;99649.30;79657;1294;3012548;-76
2023/09/20 15:05:18;;;;;;;9.40;4.30;;;;;;;27.81;28.47;99650.80;78552;1294;3052999;-77
2023/09/20 15:07:48;;;;;;;13.30;3.90;;;;;;;27.63;28.78;99652.21;79656;1299;3013984;-76
2023/09/20 15:10:17;;;;;;;8.40;3.20;;;;;;;27.50;28.71;99654.64;78699;1305;3052523;-76
2023/09/20 15:12:57;;;;;;;11.70;3.90;;;;;;;27.43;29.21;99655.89;79741;1298;3013619;-78
2023/09/20 15:15:28;;;;;;;11.70;3.40;;;;;;;27.30;29.51;99652.92;78675;1293;3052325;-77
2023/09/20 15:17:55;;;;;;;9.10;3.70;;;;;;;27.17;29.61;99653.25;79750;1298;3013330;-77
2023/09/20 15:20:25;;;;;;;14.00;3.60;;;;;;;27.08;29.82;99651.52;79220;1296;3011552;-70
2023/09/20 15:22:52;;;;;;;8.20;3.20;;;;;;;26.90;29.90;99648.95;79817;1295;3014629;-75
2023/09/20 15:25:18;;;;;;;11.40;3.30;;;;;;;26.70;30.06;99647.46;79779;1298;3011827;-70
2023/09/20 15:27:46;;;;;;;7.10;3.60;;;;;;;26.54;30.23;99646.54;78631;1297;3052897;-71
2023/09/20 15:30:13;;;;;;;8.90;3.60;;;;;;;26.42;30.19;99645.89;79959;1298;3013390;-75
2023/09/20 15:32:40;;;;;;;7.00;3.00;;;;;;;26.26;30.45;99647.47;79650;1297;3012151;-73
2023/09/20 15:35:09;;;;;;;8.90;3.50;;;;;;;26.12;30.90;99655.88;78835;1293;3025498;-75
2023/09/20 15:37:44;;;;;;;17.60;3.40;;;;;;;25.98;31.18;99651.73;79872;1294;3012845;-77
2023/09/20 15:40:15;;;;;;;11.10;4.00;;;;;;;25.85;31.08;99650.86;78454;1297;3050164;-78
2023/09/20 15:42:44;;;;;;;11.00;4.60;;;;;;;25.74;31.20;99651.72;79734;1297;3012668;-72
2023/09/20 15:45:13;;;;;;;10.90;3.90;;;;;;;25.62;31.30;99656.61;78592;1293;3053510;-70
2023/09/20 15:47:40;;;;;;;10.60;3.70;;;;;;;25.45;31.65;99663.48;79831;1297;3013917;-75
2023/09/20 15:50:07;;;;;;;14.40;4.00;;;;;;;25.36;31.55;99663.15;79688;1298;3011641;-72
2023/09/20 15:52:41;;;;;;;7.10;3.70;;;;;;;25.25;31.70;99664.21;78443;1297;3049416;-70
2023/09/20 15:55:09;;;;;;;13.60;3.50;;;;;;;25.15;31.81;99665.35;79674;1292;3011926;-74
2023/09/20 15:57:37;;;;;;;8.90;3.30;;;;;;;25.08;31.88;99664.95;78575;1305;3049575;-75
2023/09/20 16:00:12;;;;;;;12.50;3.70;;;;;;;25.01;32.05;99669.39;79895;1294;3018598;-75
2023/09/20 16:02:41;;;;;;;10.40;3.30;;;;;;;24.89;32.21;99667.91;78717;1292;3068349;-75
2023/09/20 16:05:09;;;;;;;9.00;3.70;;;;;;;24.76;32.55;99669.23;79834;1295;3013251;-72
2023/09/20 16:07:38;;;;;;;11.90;3.40;;;;;;;24.65;32.61;99672.30;79614;1295;3013201;-74
2023/09/20 16:10:12;;;;;;;8.60;3.30;;;;;;;24.57;32.83;99676.77;78453;1293;3052479;-71
2023/09/20 16:12:42;;;;;;;6.30;3.60;;;;;;;24.46;33.24;99680.20;79474;1294;3011622;-73
2023/09/20 16:15:09;;;;;;;8.50;4.00;;;;;;;24.35;33.54;99684.16;80233;1293;3013513;-69
2023/09/20 16:17:37;;;;;;;8.90;3.90;;;;;;;24.26;33.67;99687.02;79818;1297;3012930;-70
2023/09/20 16:20:06;;;;;;;9.60;4.20;;;;;;;24.17;34.04;99690.67;79230;1296;3069644;-67
2023/09/20 16:22:33;;;;;;;8.80;5.00;;;;;;;24.07;34.14;99694.15;79956;1297;3013569;-70
2023/09/20 16:25:01;;;;;;;9.00;4.00;;;;;;;23.98;34.57;99691.13;79823;1293;3013174;-73
2023/09/20 16:27:29;;;;;;;8.20;4.70;;;;;;;23.87;34.52;99697.28;79030;1297;3053357;-72
2023/09/20 16:29:56;;;;;;;12.10;5.20;;;;;;;23.78;34.81;99698.27;80435;1297;3013752;-73
2023/09/20 16:32:22;;;;;;;10.50;5.30;;;;;;;23.71;34.97;99697.70;80900;1294;3011614;-74
2023/09/20 16:34:52;;;;;;;15.40;5.30;;;;;;;23.65;35.00;99698.55;79165;1294;3070000;-71
2023/09/20 16:37:19;;;;;;;11.20;5.80;;;;;;;23.57;35.06;99699.95;79859;1295;3013584;-78
2023/09/20 16:39:46;;;;;;;13.00;4.90;;;;;;;23.52;35.33;99701.77;79843;1295;3013186;-72
2023/09/20 16:42:14;;;;;;;13.30;5.10;;;;;;;23.45;35.46;99703.27;78426;1293;3053577;-74
2023/09/20 16:44:41;;;;;;;18.50;5.40;;;;;;;23.36;35.78;99699.10;79851;1297;3012867;-76
2023/09/20 16:47:08;;;;;;;11.70;5.70;;;;;;;23.29;35.69;99700.67;79754;1295;3011731;-76
2023/09/20 16:49:36;;;;;;;11.20;4.80;;;;;;;23.24;35.74;99705.04;78759;1294;3069682;-76
2023/09/20 16:52:03;;;;;;;13.80;5.20;;;;;;;23.14;35.97;99706.48;79916;1293;3013030;-74
2023/09/20 16:54:30;;;;;;;9.10;4.90;;;;;;;23.07;36.08;99704.70;79912;1294;3012385;-72
2023/09/20 16:56:58;;;;;;;11.20;4.80;;;;;;;23.01;36.15;99708.95;78816;1295;3053197;-74
2023/09/20 16:59:25;;;;;;;9.70;4.80;;;;;;;22.95;36.28;99709.02;80169;1296;3013423;-70
2023/09/20 17:01:52;;;;;;;10.20;4.80;;;;;;;22.91;36.44;99712.00;79885;1297;3011930;-75
2023/09/20 17:04:20;;;;;;;13.40;4.70;;;;;;;22.83;36.73;99712.64;78574;1297;3026729;-75
2023/09/20 17:06:48;;;;;;;17.80;4.80;;;;;;;22.78;36.82;99714.09;80034;1295;3012901;-71
2023/09/20 17:09:21;;;;;;;9.70;4.30;;;;;;;22.71;36.92;99720.73;79884;1292;3012151;-76
2023/09/20 17:11:50;;;;;;;13.00;4.40;;;;;;;22.64;36.82;99718.06;78748;1297;3053515;-74
2023/09/20 17:14:18;;;;;;;10.50;4.90;;;;;;;22.60;36.97;99719.04;79960;1295;3012952;-72
2023/09/20 17:16:44;;;;;;;11.80;4.80;;;;;;;22.55;37.07;99718.73;80155;1294;3013018;-73
2023/09/20 17:19:15;;;;;;;6.90;5.00;;;;;;;22.48;37.01;99725.85;78624;1295;3068003;-73
2023/09/20 17:21:45;;;;;;;12.00;4.80;;;;;;;22.44;37.16;99723.59;79856;1293;3012928;-72
2023/09/20 17:24:14;;;;;;;12.40;4.70;;;;;;;22.42;37.18;99725.79;79204;1293;3011741;-73
2023/09/20 17:26:45;;;;;;;12.10;4.80;;;;;;;22.35;37.22;99725.40;79806;1294;3013045;-71
2023/09/20 17:29:13;;;;;;;14.80;3.80;;;;;;;22.29;37.37;99723.94;78599;1293;3054747;-71
2023/09/20 17:31:40;;;;;;;8.60;5.00;;;;;;;22.23;37.37;99720.65;79893;1298;3013478;-71
2023/09/20 17:34:07;;;;;;;11.90;4.90;;;;;;;22.21;37.33;99723.35;79707;1297;3011944;-70
2023/09/20 17:36:35;;;;;;;13.80;4.60;;;;;;;22.17;37.58;99724.41;78883;1293;3068349;-76
2023/09/20 17:39:04;;;;;;;11.60;4.90;;;;;;;22.12;37.78;99724.56;79823;1294;3013556;-74
2023/09/20 17:41:33;;;;;;;6.80;4.40;;;;;;;22.07;37.82;99725.85;79499;1292;3011660;-76
2023/09/20 17:44:00;;;;;;;9.10;4.60;;;;;;;22.02;37.92;99722.06;79903;1293;3021283;-75
2023/09/20 17:46:27;;;;;;;14.40;4.40;;;;;;;21.97;38.05;99726.20;79750;1296;3011973;-73
2023/09/20 17:48:55;;;;;;;8.90;4.30;;;;;;;21.94;38.29;99721.52;78878;1294;3026411;-73
2023/09/20 17:51:23;;;;;;;11.50;4.10;;;;;;;21.91;38.42;99724.72;80016;1293;3011422;-74
2023/09/20 17:53:50;;;;;;;10.10;4.70;;;;;;;21.86;38.46;99723.57;80092;1294;3011887;-76
2023/09/20 17:56:18;;;;;;;13.60;4.50;;;;;;;21.82;38.65;99724.38;78555;1292;3056062;-75
2023/09/20 17:58:46;;;;;;;9.30;4.10;;;;;;;21.78;38.77;99726.89;79964;1292;3013986;-76
2023/09/20 18:01:14;;;;;;;12.30;5.10;;;;;;;21.75;38.67;99729.33;79792;1295;3011919;-73
2023/09/20 18:03:42;;;;;;;13.60;4.80;;;;;;;21.73;38.63;99723.69;78623;1297;3052462;-77
2023/09/20 18:06:12;;;;;;;5.30;4.00;;;;;;;21.70;38.93;99727.25;79821;1294;3011571;-76
2023/09/20 18:08:43;;;;;;;5.00;4.00;;;;;;;21.68;38.61;99731.54;78776;1294;3051270;-75
2023/09/20 18:11:11;;;;;;;10.20;4.30;;;;;;;21.66;38.63;99735.45;79705;1294;3013260;-75
2023/09/20 18:13:40;;;;;;;8.30;4.20;;;;;;;21.65;38.49;99733.83;79475;1297;3013569;-74
2023/09/20 18:16:11;;;;;;;10.30;4.40;;;;;;;21.65;38.70;99735.44;79822;1295;3013529;-75
2023/09/20 18:18:42;;;;;;;11.10;4.20;;;;;;;21.64;38.80;99736.04;78646;1296;3052833;-72
2023/09/20 18:21:11;;;;;;;7.80;4.40;;;;;;;21.61;38.51;99741.48;79861;1297;3011378;-72
2023/09/20 18:23:39;;;;;;;9.20;4.30;;;;;;;21.59;38.55;99742.40;78603;1295;3068352;-75
2023/09/20 18:26:11;;;;;;;5.50;4.00;;;;;;;21.57;38.44;99736.94;80152;1295;3013278;-75
2023/09/20 18:28:39;;;;;;;6.60;4.40;;;;;;;21.55;38.55;99741.80;78519;1294;3049193;-74
2023/09/20 18:31:15;;;;;;;6.40;4.10;;;;;;;21.50;38.87;99741.38;79773;1295;3014870;-73
2023/09/20 18:33:47;;;;;;;7.50;4.40;;;;;;;21.46;38.94;99741.89;78596;1305;3052936;-71
2023/09/20 18:36:19;;;;;;;10.80;4.30;;;;;;;21.43;38.94;99741.84;79761;1297;3011901;-75
2023/09/20 18:38:47;;;;;;;7.50;4.30;;;;;;;21.41;38.86;99739.88;78673;1293;3069851;-76
2023/09/20 18:41:15;;;;;;;13.80;4.20;;;;;;;21.39;38.80;99741.88;79898;1292;3012731;-76
2023/09/20 18:43:44;;;;;;;9.30;4.30;;;;;;;21.39;38.72;99744.01;79939;1295;3011783;-77
2023/09/20 18:46:12;;;;;;;5.50;3.80;;;;;;;21.39;38.60;99744.71;78843;1293;3053301;-76
2023/09/20 18:48:39;;;;;;;6.80;4.20;;;;;;;21.39;38.64;99743.11;80066;1294;3015842;-76
2023/09/20 18:51:06;;;;;;;10.30;4.50;;;;;;;21.37;38.76;99741.53;79816;1292;3011645;-75
2023/09/20 18:53:35;;;;;;;11.90;4.50;;;;;;;21.35;38.62;99740.38;78596;1295;3026144;-78
2023/09/20 18:56:03;;;;;;;5.80;4.20;;;;;;;21.34;38.66;99737.93;79801;1295;3018550;-75
2023/09/20 18:58:33;;;;;;;8.40;4.40;;;;;;;21.31;38.80;99738.81;79909;1294;3011940;-74
2023/09/20 19:01:17;;;;;;;8.80;4.40;;;;;;;21.26;39.04;99738.95;78621;1297;3053544;-74
2023/09/20 19:03:45;;;;;;;9.70;4.30;;;;;;;21.18;39.54;99737.61;78875;1292;3049504;-71
2023/09/20 19:06:19;;;;;;;6.30;4.10;;;;;;;21.10;39.68;99736.73;79887;1297;3013438;-74
2023/09/20 19:08:52;;;;;;;14.10;4.30;;;;;;;21.02;40.09;99735.83;78752;1297;3068838;-75
2023/09/20 19:11:23;;;;;;;7.50;4.20;;;;;;;20.91;41.10;99735.85;79947;1295;3013574;-71
2023/09/20 19:13:50;;;;;;;12.10;4.30;;;;;;;20.82;41.52;99732.80;78621;1296;3057561;-72
2023/09/20 19:16:17;;;;;;;16.40;4.70;;;;;;;20.78;41.02;99733.67;79993;1292;3013256;-71
2023/09/20 19:18:55;;;;;;;7.50;4.30;;;;;;;20.77;41.07;99736.90;79774;1293;3012706;-76
2023/09/20 19:21:24;;;;;;;9.00;4.60;;;;;;;20.74;41.18;99736.80;78615;1297;3053004;-74
2023/09/20 19:23:52;;;;;;;8.00;4.30;;;;;;;20.73;40.77;99740.99;79957;1297;3013218;-73
2023/09/20 19:26:21;;;;;;;9.50;4.90;;;;;;;20.73;40.66;99735.83;79305;1294;3013328;-72
2023/09/20 19:28:48;;;;;;;8.20;4.20;;;;;;;20.71;40.94;99738.54;79883;1296;3013495;-73
2023/09/20 19:31:15;;;;;;;6.50;4.60;;;;;;;20.70;40.75;99743.58;79830;1293;3011909;-74
2023/09/20 19:33:43;;;;;;;10.20;4.90;;;;;;;20.69;40.81;99747.98;78555;1294;3053010;-73
2023/09/20 19:36:09;;;;;;;10.60;5.00;;;;;;;20.67;40.80;99755.85;79941;1297;3018940;-72
2023/09/20 19:38:45;;;;;;;7.10;4.90;;;;;;;20.65;40.59;99753.30;80017;1295;3011572;-75
2023/09/20 19:41:14;;;;;;;11.50;4.80;;;;;;;20.64;40.77;99760.23;78684;1293;3069029;-74
2023/09/20 19:43:41;;;;;;;15.80;5.00;;;;;;;20.62;40.68;99758.95;79850;1295;3013577;-73
2023/09/20 19:46:11;;;;;;;10.70;5.30;;;;;;;20.58;40.85;99759.38;79825;1293;3011805;-71
2023/09/20 19:48:39;;;;;;;7.80;4.90;;;;;;;20.53;40.72;99757.35;78597;1295;3051989;-72
2023/09/20 19:51:10;;;;;;;8.90;5.00;;;;;;;20.50;40.78;99761.05;79930;1292;3012907;-69
2023/09/20 19:53:42;;;;;;;9.70;5.40;;;;;;;20.47;40.91;99761.33;78561;1296;3051502;-72
2023/09/20 19:56:18;;;;;;;17.00;5.60;;;;;;;20.41;41.19;99763.10;79735;1297;3011665;-73
2023/09/20 19:58:48;;;;;;;9.50;4.90;;;;;;;20.37;41.03;99762.48;78596;1293;3051147;-72
2023/09/20 20:01:15;;;;;;;12.40;5.30;;;;;;;20.33;41.48;99758.77;79917;1294;3012980;-71
2023/09/20 20:03:43;;;;;;;9.00;5.10;;;;;;;20.31;41.25;99761.27;79990;1294;3011437;-76
2023/09/20 20:06:16;;;;;;;10.00;5.20;;;;;;;20.31;41.30;99761.95;78483;1295;3049463;-69
2023/09/20 20:08:43;;;;;;;7.10;4.90;;;;;;;20.29;41.15;99762.68;79921;1296;3011568;-75
2023/09/20 20:11:12;;;;;;;8.70;4.90;;;;;;;20.27;40.97;99760.92;78626;1296;3052333;-75
2023/09/20 20:13:40;;;;;;;9.50;5.40;;;;;;;20.24;40.86;99761.56;79707;1292;3012758;-77
2023/09/20 20:16:13;;;;;;;10.30;5.40;;;;;;;20.25;40.58;99760.02;79866;1297;3011967;-76
2023/09/20 20:18:43;;;;;;;15.60;5.40;;;;;;;20.26;40.40;99758.58;78585;1296;3050388;-75
2023/09/20 20:21:10;;;;;;;11.40;5.10;;;;;;;20.26;40.29;99761.38;79784;1294;3013647;-74
2023/09/20 20:23:37;;;;;;;10.90;4.80;;;;;;;20.22;40.54;99760.30;79528;1297;3011823;-73
2023/09/20 20:26:12;;;;;;;15.50;5.30;;;;;;;20.19;40.62;99759.37;78641;1296;3051925;-73
2023/09/20 20:28:42;;;;;;;10.40;6.00;;;;;;;20.14;41.02;99760.21;79153;1297;3012001;-73
2023/09/20 20:31:10;;;;;;;11.20;5.50;;;;;;;20.10;41.04;99759.66;79788;1294;3013490;-75
2023/09/20 20:33:39;;;;;;;11.70;4.70;;;;;;;20.04;41.32;99756.88;79248;1293;3011763;-73
2023/09/20 20:36:12;;;;;;;10.10;5.10;;;;;;;20.01;41.28;99757.01;79742;1295;3019006;-72
2023/09/20 20:38:40;;;;;;;9.60;4.70;;;;;;;20.00;41.06;99754.15;78656;1297;3053619;-74
2023/09/20 20:41:07;;;;;;;11.60;5.20;;;;;;;19.98;41.17;99755.73;79783;1305;3013315;-71
2023/09/20 20:43:34;;;;;;;8.10;5.30;;;;;;;19.96;41.40;99754.14;79708;1293;3011727;-73
2023/09/20 20:46:01;;;;;;;7.10;4.60;;;;;;;19.93;41.36;99753.64;78708;1295;3068880;-70
2023/09/20 20:48:28;;;;;;;10.40;4.80;;;;;;;19.90;41.23;99750.41;80049;1293;3012940;-72
2023/09/20 20:50:57;;;;;;;9.50;5.30;;;;;;;19.90;41.24;99753.91;79780;1295;3013663;-75
2023/09/20 20:53:25;;;;;;;12.30;4.40;;;;;;;19.88;41.43;99748.08;78490;1295;3054408;-76
2023/09/20 20:55:55;;;;;;;10.90;5.40;;;;;;;19.85;41.37;99752.14;79673;1297;3013338;-72
2023/09/20 20:58:26;;;;;;;10.20;4.40;;;;;;;19.83;41.24;99759.77;78540;1293;3051957;-74
2023/09/20 21:00:56;;;;;;;15.50;4.80;;;;;;;19.81;41.38;99756.05;79717;1297;3011629;-73
2023/09/20 21:03:24;;;;;;;6.80;4.40;;;;;;;19.81;41.05;99753.23;78532;1293;3051089;-74
2023/09/20 21:05:51;;;;;;;9.40;4.80;;;;;;;19.83;41.09;99758.41;79809;1295;3014883;-70
2023/09/20 21:08:19;;;;;;;10.50;4.90;;;;;;;19.83;40.89;99759.97;79880;1295;3011917;-76
2023/09/20 21:10:47;;;;;;;7.30;4.70;;;;;;;19.83;40.85;99757.80;78932;1295;3049546;-71
2023/09/20 21:13:14;;;;;;;7.10;4.60;;;;;;;19.84;41.11;99754.75;80358;1296;3013544;-72
2023/09/20 21:15:45;;;;;;;9.00;4.30;;;;;;;19.82;40.46;99756.15;80318;1292;3011721;-69
2023/09/20 21:18:15;;;;;;;14.70;4.80;;;;;;;19.79;39.83;99756.63;78440;1295;3052625;-72
2023/09/20 21:20:45;;;;;;;8.70;5.30;;;;;;;19.84;39.53;99757.92;79701;1293;3013293;-74
2023/09/20 21:23:13;;;;;;;6.90;5.00;;;;;;;19.90;39.17;99757.70;78597;1292;3047818;-73
2023/09/20 21:25:41;;;;;;;7.70;5.20;;;;;;;19.92;39.32;99757.13;79866;1292;3013526;-72
2023/09/20 21:28:07;;;;;;;7.70;4.90;;;;;;;19.93;39.24;99754.05;79697;1297;3011642;-74
2023/09/20 21:30:39;;;;;;;11.10;5.10;;;;;;;19.94;39.37;99754.96;78349;1301;3054654;-75
2023/09/20 21:33:08;;;;;;;6.70;4.60;;;;;;;19.94;39.40;99758.20;79752;1294;3011583;-71
2023/09/20 21:35:36;;;;;;;9.30;4.70;;;;;;;19.93;39.40;99756.31;78621;1293;3051987;-73
2023/09/20 21:38:07;;;;;;;11.50;5.30;;;;;;;19.92;39.77;99755.34;79669;1293;3018929;-74
2023/09/20 21:40:35;;;;;;;8.60;5.50;;;;;;;19.90;40.06;99759.10;78478;1296;3053550;-73
2023/09/20 21:43:02;;;;;;;10.60;5.10;;;;;;;19.87;39.88;99755.33;79797;1295;3013722;-73
2023/09/20 21:45:30;;;;;;;10.20;4.80;;;;;;;19.83;39.72;99752.30;79634;1293;3011837;-73
2023/09/20 21:47:58;;;;;;;9.20;5.00;;;;;;;19.83;39.99;99754.65;78435;1295;3068191;-69